TimeEST,TemperatureF,Dew PointF,Humidity,Sea Level PressureIn,VisibilityMPH,Wind Direction,Wind SpeedMPH,Gust SpeedMPH,PrecipitationIn,Events,Conditions,WindDirDegrees,DateUTC
12:55 AM,16.3,5.9,64,30.14,10.0,West,5.8,-,N/A,,Partly Cloudy,280,2013-02-17 05:55:00
1:55 AM,15.4,6.1,67,30.14,10.0,West,5.8,-,N/A,,Partly Cloudy,270,2013-02-17 06:55:00
2:55 AM,15.3,5.7,66,30.14,10.0,WNW,5.8,-,N/A,,Clear,290,2013-02-17 07:55:00
3:55 AM,14.7,5.9,68,30.14,10.0,West,5.8,-,N/A,,Clear,270,2013-02-17 08:55:00
4:55 AM,13.1,5.5,72,30.16,10.0,West,5.8,-,N/A,,Clear,270,2013-02-17 09:55:00
5:55 AM,12.7,5.5,73,30.18,10.0,West,5.8,-,N/A,,Clear,260,2013-02-17 10:55:00
6:55 AM,10.8,4.6,76,30.20,10.0,SW,3.5,-,N/A,,Clear,230,2013-02-17 11:55:00
7:03 AM,10.4,5.0,79,30.20,10.0,West,3.5,-,N/A,,Scattered Clouds,260,2013-02-17 12:03:00
7:41 AM,14.0,6.8,73,30.21,10.0,West,5.8,-,N/A,,Mostly Cloudy,280,2013-02-17 12:41:00
7:55 AM,14.9,7.9,74,30.21,10.0,West,6.9,-,N/A,,Mostly Cloudy,280,2013-02-17 12:55:00
8:19 AM,15.8,8.6,73,30.22,10.0,West,5.8,-,N/A,,Scattered Clouds,280,2013-02-17 13:19:00
8:48 AM,15.8,8.6,73,30.23,10.0,West,9.2,-,N/A,,Mostly Cloudy,280,2013-02-17 13:48:00
8:55 AM,16.3,9.0,73,30.23,10.0,WNW,10.4,-,N/A,,Mostly Cloudy,290,2013-02-17 13:55:00
9:00 AM,15.8,8.6,73,30.24,10.0,WNW,9.2,-,N/A,Snow,Light Snow,290,2013-02-17 14:00:00
9:39 AM,17.6,10.4,73,30.24,10.0,NW,11.5,-,N/A,,Mostly Cloudy,310,2013-02-17 14:39:00
9:55 AM,18.3,10.4,71,30.25,10.0,WNW,8.1,-,0.00,,Mostly Cloudy,290,2013-02-17 14:55:00
10:05 AM,17.6,10.4,73,30.25,10.0,WNW,9.2,-,N/A,,Mostly Cloudy,300,2013-02-17 15:05:00
10:46 AM,19.4,10.4,68,30.26,10.0,NNW,6.9,-,N/A,,Scattered Clouds,330,2013-02-17 15:46:00
10:55 AM,20.3,9.9,64,30.26,10.0,NW,5.8,-,N/A,,Scattered Clouds,310,2013-02-17 15:55:00
11:55 AM,22.6,8.2,54,30.27,10.0,West,4.6,-,N/A,,Partly Cloudy,260,2013-02-17 16:55:00
12:00 PM,23.0,8.6,54,30.21,10.0,Variable,5.8,-,N/A,,Scattered Clouds,0,2013-02-17 17:00:00
12:55 PM,24.4,5.2,44,30.25,10.0,Calm,Calm,-,N/A,,Partly Cloudy,0,2013-02-17 17:55:00
1:55 PM,26.6,4.6,39,30.24,10.0,NW,9.2,-,N/A,,Scattered Clouds,320,2013-02-17 18:55:00
2:55 PM,28.4,4.8,37,30.24,10.0,Variable,6.9,-,N/A,,Scattered Clouds,0,2013-02-17 19:55:00
3:55 PM,27.7,4.8,38,30.23,10.0,SW,10.4,-,N/A,,Scattered Clouds,230,2013-02-17 20:55:00
4:55 PM,28.2,6.4,40,30.23,10.0,WSW,10.4,-,N/A,,Partly Cloudy,240,2013-02-17 21:55:00
5:55 PM,26.2,7.0,44,30.24,10.0,SW,5.8,-,N/A,,Partly Cloudy,220,2013-02-17 22:55:00
6:55 PM,23.9,7.0,49,30.25,10.0,Calm,Calm,-,N/A,,Clear,0,2013-02-17 23:55:00
7:55 PM,22.3,8.6,56,30.25,10.0,Calm,Calm,-,N/A,,Partly Cloudy,0,2013-02-18 00:55:00
8:55 PM,20.3,9.9,64,30.24,10.0,ESE,4.6,-,N/A,,Partly Cloudy,120,2013-02-18 01:55:00
9:55 PM,18.9,8.8,65,30.25,10.0,Calm,Calm,-,N/A,,Clear,0,2013-02-18 02:55:00
10:55 PM,19.9,8.6,61,30.26,10.0,SE,5.8,-,N/A,,Clear,130,2013-02-18 03:55:00
11:55 PM,19.4,8.4,62,30.25,10.0,Calm,Calm,-,N/A,,Clear,0,2013-02-18 04:55:00